Terminal Aerodrome Forecast
Issued by NWS Charleston, WV

Home | Current Version | Previous Version | Text Only | Print | Product List | Glossary On
Versions: 1 2 3 4 5 6 7 8 9 10 11 12 13 14 15 16 17 18 19 20 21 22 23 24 25 26 27 28
195
FTUS41 KRLX 251515 AAA
TAFBKW
TAF AMD
KBKW 251515Z 2515/2612 24009KT 5SM -SHRA BR SCT015 BKN035 OVC050
     FM251600 26010KT P6SM SCT025 OVC050
     FM251700 28015G28KT P6SM BKN040=

USA.gov is the U.S. government's official web portal to all federal, state and local government web resources and services.